Aérodrome :
LOGIN :

S'inscrire | Disclaimer

   EN    FR    IT 

 










Légende :    VFR   VFR Marginal   IFR   IFR Intensif   IFR Très Intensif
Visi : 
Plafond : 
>= 8 km
>= 3000ft
5 à 8 km
1000 à 3000 ft
1500m à 5 km
500 à 1000 ft
800 à 1500m
200 à 500 ft
< 800m
< 200 ft
Symboles :   Orages  Brouillard  Fortes neiges  Fortes précipitations  Vent > 20 kt
SIGMETs :   Divers  Orages  Givrage  Turbulence  Onde Orograph.  Cendres Volcan.







- Altitude de l'aérodrome : 125 ft
- Code IATA : MGL


EDLN - Mönchengladbach

DERNIER METAR :
  • 211720Z 19005KT 120V240 CAVOK 13/10 Q1011

METARs EXPIRÉS :
  • 211650Z 19005KT 150V260 CAVOK 14/10 Q1010
  • 211620Z 20007KT 150V320 CAVOK 15/09 Q1011
  • 211550Z VRB11KT CAVOK 16/09 Q1011
  • 211520Z VRB09KT CAVOK 17/09 Q1010
  • 211450Z VRB07KT 9999 FEW040 SCT130 17/10 Q1010
  • 211420Z VRB08KT 9999 FEW040 SCT120 17/10 Q1010

TAF TAF EDLN
Valide du 21 à 15h jusqu'au 22 à 00h UTC


211400Z 2115/2124 22008KT 9999 SCT040
Pas de NOTAMs connus pour ce terrain.



MET'MAP, la Météo Aéronautique d'un coup d'oeil ! - Copyright ORBIFLY Décembre 2007 - Disclaimer

ORBIFLY MET'MAP TEAM :

Programmation & Développement : Alexandra Zaïnal
Conception & Développement : Baudouin d'Aumeries
Co-Programmation & Développement : Marc-Olivier Méhu
Soutien technique & logistique : Manuel Goepfert

Contact : metmap@orbifly.com




SOURCES & CREDITS :

   NOAA